Time;durP1;ratioP1;P1;durP2;ratioP2;P2;SDS_P1;SDS_P2;PMS_P1;PMS_P2;Temp;Humidity;BMP_temperature;BMP_pressure;BME280_temperature;BME280_humidity;BME280_pressure;Samples;Min_cycle;Max_cycle;Signal;HPM_P1;HPM_P2
2022/06/19 00:00:14;;;;;;;1.65;0.38;;;;;;;11.87;100.00;99945.78;7402959;19;20066;-89
2022/06/19 00:02:43;;;;;;;0.35;0.35;;;;;;;11.84;100.00;99941.97;7402448;19;20015;-89
2022/06/19 00:05:11;;;;;;;8.52;0.90;;;;;;;11.84;100.00;99943.97;7403725;19;20039;-90
2022/06/19 00:07:37;;;;;;;1.38;0.47;;;;;;;11.75;100.00;99958.81;7407392;19;20018;-89
2022/06/19 00:10:05;;;;;;;0.43;0.40;;;;;;;11.73;100.00;99957.75;7399678;19;20042;-89
2022/06/19 00:12:32;;;;;;;3.35;0.50;;;;;;;11.72;100.00;99951.38;7403090;19;20038;-90
2022/06/19 00:14:58;;;;;;;0.20;0.20;;;;;;;11.72;100.00;99961.75;7400081;19;20479;-89
2022/06/19 00:17:24;;;;;;;1.00;0.68;;;;;;;11.73;100.00;99958.50;7409097;19;20351;-89
2022/06/19 00:19:52;;;;;;;0.40;0.40;;;;;;;11.77;100.00;99942.34;7405425;19;20022;-89
2022/06/19 00:22:18;;;;;;;0.40;0.40;;;;;;;11.77;100.00;99947.16;7404693;19;20011;-89
2022/06/19 00:24:44;;;;;;;7.88;0.50;;;;;;;11.76;100.00;99940.78;7401913;19;20014;-88
2022/06/19 00:27:11;;;;;;;1.05;0.65;;;;;;;11.70;100.00;99937.16;7407425;19;20044;-88
2022/06/19 00:29:37;;;;;;;0.50;0.50;;;;;;;11.64;100.00;99939.03;7401180;19;20010;-89
2022/06/19 00:32:07;;;;;;;0.43;0.28;;;;;;;11.58;100.00;99932.59;7403969;19;20010;-89
2022/06/19 00:34:37;;;;;;;0.45;0.40;;;;;;;11.55;100.00;99936.34;7403272;19;20015;-90
2022/06/19 00:37:04;;;;;;;1.20;0.43;;;;;;;11.55;100.00;99936.34;7407808;19;20011;-89
2022/06/19 00:39:39;;;;;;;4.35;0.60;;;;;;;11.59;100.00;99931.34;7403794;19;20330;-89
2022/06/19 00:42:07;;;;;;;0.50;0.50;;;;;;;11.60;100.00;99924.53;7405842;19;20025;-90
2022/06/19 00:44:34;;;;;;;0.70;0.70;;;;;;;11.51;100.00;99929.41;7401768;19;20021;-89
2022/06/19 00:47:09;;;;;;;0.30;0.30;;;;;;;11.37;100.00;99930.94;7407923;19;20006;-89
2022/06/19 00:49:43;;;;;;;0.65;0.65;;;;;;;11.26;100.00;99925.19;7402085;19;20053;-89
2022/06/19 00:52:13;;;;;;;0.68;0.68;;;;;;;11.14;100.00;99921.41;7402516;19;20107;-89
2022/06/19 00:55:01;;;;;;;0.70;0.30;;;;;;;11.08;100.00;99914.94;7402259;19;20092;-89
2022/06/19 00:57:30;;;;;;;0.20;0.10;;;;;;;11.05;100.00;99901.19;7406906;19;20021;-88
2022/06/19 01:00:04;;;;;;;0.35;0.28;;;;;;;10.99;100.00;99891.94;7403836;19;20011;-90
2022/06/19 01:02:31;;;;;;;0.57;0.57;;;;;;;10.89;100.00;99901.66;7402739;19;20015;-90
2022/06/19 01:04:57;;;;;;;2.67;0.50;;;;;;;10.85;100.00;99893.44;7404040;19;20010;-90
2022/06/19 01:07:26;;;;;;;0.70;0.70;;;;;;;10.86;100.00;99880.28;7406477;19;20015;-90
2022/06/19 01:09:52;;;;;;;0.60;0.60;;;;;;;10.84;100.00;99880.00;7404732;19;20007;-90
2022/06/19 01:12:22;;;;;;;0.40;0.40;;;;;;;10.82;100.00;99885.28;7403074;19;20018;-90
2022/06/19 01:14:52;;;;;;;0.17;0.15;;;;;;;10.82;100.00;99874.13;7399961;19;20102;-90
2022/06/19 01:17:18;;;;;;;0.77;0.77;;;;;;;10.77;100.00;99869.22;7404838;19;20014;-89
2022/06/19 01:19:44;;;;;;;1.20;0.47;;;;;;;10.78;100.00;99874.34;7397335;19;20015;-90
2022/06/19 01:22:46;;;;;;;0.60;0.30;;;;;;;10.80;100.00;99871.06;7398702;19;20095;-91
2022/06/19 01:25:22;;;;;;;0.50;0.50;;;;;;;10.73;100.00;99868.63;7393482;19;20011;-90
2022/06/19 01:30:38;;;;;;;0.57;0.57;;;;;;;10.57;100.00;99867.81;7401620;19;20465;-89
2022/06/19 01:33:10;;;;;;;0.57;0.30;;;;;;;10.59;100.00;99868.13;7397215;19;20007;-90
2022/06/19 01:35:38;;;;;;;0.28;0.20;;;;;;;10.64;100.00;99867.47;7395687;19;20115;-90
2022/06/19 01:38:10;;;;;;;0.65;0.65;;;;;;;10.70;100.00;99861.25;7400091;19;20018;-91
2022/06/19 01:40:39;;;;;;;0.60;0.50;;;;;;;10.75;100.00;99852.22;7399025;19;20803;-91
2022/06/19 01:43:05;;;;;;;0.60;0.38;;;;;;;10.73;100.00;99849.16;7396633;19;20019;-90
2022/06/19 01:45:32;;;;;;;7.28;0.98;;;;;;;10.68;100.00;99841.47;7393977;19;20006;-90
2022/06/19 01:47:59;;;;;;;2.67;1.40;;;;;;;10.66;100.00;99839.91;7400569;19;20102;-90
2022/06/19 01:50:29;;;;;;;0.50;0.50;;;;;;;10.65;100.00;99840.41;7396834;19;20473;-90
2022/06/19 01:53:05;;;;;;;1.08;0.47;;;;;;;10.59;100.00;99839.50;7394752;19;20010;-90
2022/06/19 01:55:32;;;;;;;0.82;0.82;;;;;;;10.57;100.00;99845.56;7389796;19;20014;-88
2022/06/19 01:58:00;;;;;;;1.85;0.60;;;;;;;10.49;100.00;99840.81;7386753;19;20099;-90
2022/06/19 02:00:31;;;;;;;0.65;0.30;;;;;;;10.41;100.00;99840.44;7397531;19;20022;-90
2022/06/19 02:03:13;;;;;;;0.80;0.80;;;;;;;10.38;100.00;99833.00;7398953;19;20014;-90
2022/06/19 02:05:40;;;;;;;0.40;0.30;;;;;;;10.32;100.00;99837.69;7396796;19;20014;-90
2022/06/19 02:08:07;;;;;;;0.40;0.40;;;;;;;10.28;100.00;99844.69;7398338;19;20024;-88
2022/06/19 02:10:36;;;;;;;0.77;0.73;;;;;;;10.26;100.00;99838.81;7397198;19;20014;-90
2022/06/19 02:13:03;;;;;;;13.80;1.63;;;;;;;10.20;100.00;99837.94;7396062;19;20026;-90
2022/06/19 02:15:31;;;;;;;0.47;0.47;;;;;;;10.22;100.00;99844.53;7393536;19;20038;-90
2022/06/19 02:18:00;;;;;;;4.47;0.73;;;;;;;10.19;100.00;99834.38;7397810;19;20006;-91
2022/06/19 02:20:26;;;;;;;2.05;0.60;;;;;;;10.18;100.00;99837.66;7395210;19;20342;-91
2022/06/19 02:22:52;;;;;;;0.63;0.40;;;;;;;10.16;100.00;99838.09;7397254;19;20349;-91
2022/06/19 02:25:18;;;;;;;5.70;0.60;;;;;;;10.13;100.00;99839.06;7394710;19;20019;-91
2022/06/19 02:27:45;;;;;;;0.10;0.10;;;;;;;10.09;100.00;99835.63;7398788;19;20022;-90
2022/06/19 02:30:13;;;;;;;0.50;0.25;;;;;;;10.03;100.00;99831.22;7395028;19;20334;-90
2022/06/19 02:32:44;;;;;;;3.13;1.13;;;;;;;10.01;100.00;99834.44;7391748;19;20015;-89
2022/06/19 02:35:17;;;;;;;0.60;0.57;;;;;;;9.91;100.00;99841.31;7393468;19;20018;-91
2022/06/19 02:37:47;;;;;;;9.13;0.77;;;;;;;9.93;100.00;99836.03;7397942;19;20062;-90
2022/06/19 02:40:46;;;;;;;4.20;0.63;;;;;;;9.89;100.00;99833.44;7396315;19;20037;-91
2022/06/19 02:43:17;;;;;;;2.10;0.98;;;;;;;9.99;100.00;99834.16;7395658;19;20037;-90
2022/06/19 02:45:43;;;;;;;4.68;0.70;;;;;;;10.05;100.00;99840.59;7393615;19;20018;-90
2022/06/19 02:48:30;;;;;;;2.30;0.95;;;;;;;10.13;100.00;99836.28;7398310;19;20014;-91
2022/06/19 02:51:00;;;;;;;0.43;0.43;;;;;;;10.22;100.00;99830.63;7392910;19;20017;-91
2022/06/19 02:53:27;;;;;;;0.40;0.40;;;;;;;10.24;100.00;99836.53;7395191;19;20014;-91
2022/06/19 02:55:54;;;;;;;0.43;0.43;;;;;;;10.23;100.00;99832.19;7391895;19;20480;-90
2022/06/19 02:58:20;;;;;;;2.65;0.73;;;;;;;10.24;100.00;99825.38;7396938;19;20018;-90
2022/06/19 03:00:48;;;;;;;0.50;0.47;;;;;;;10.28;100.00;99823.19;7396470;19;20021;-91
2022/06/19 03:03:18;;;;;;;0.55;0.55;;;;;;;10.37;100.00;99837.03;7394767;19;20082;-91
2022/06/19 03:05:44;;;;;;;0.73;0.40;;;;;;;10.31;100.00;99838.94;7394661;19;20386;-90
2022/06/19 03:08:10;;;;;;;0.20;0.20;;;;;;;10.29;100.00;99844.19;7396645;19;20010;-90
2022/06/19 03:10:36;;;;;;;4.03;0.57;;;;;;;10.24;100.00;99836.53;7395522;19;20018;-90
2022/06/19 03:13:02;;;;;;;0.77;0.43;;;;;;;10.20;100.00;99835.91;7394706;19;20035;-90
2022/06/19 03:15:29;;;;;;;0.40;0.40;;;;;;;10.14;100.00;99840.59;7392471;19;20027;-90
2022/06/19 03:17:55;;;;;;;0.73;0.50;;;;;;;10.07;100.00;99826.25;7396957;19;20026;-90
2022/06/19 03:20:24;;;;;;;0.95;0.47;;;;;;;10.03;100.00;99836.78;7393576;19;20110;-90
2022/06/19 03:22:51;;;;;;;0.40;0.40;;;;;;;9.97;100.00;99833.84;7394388;19;20031;-90
2022/06/19 03:25:18;;;;;;;0.98;0.50;;;;;;;9.87;100.00;99829.59;7391989;19;20022;-90
2022/06/19 03:27:44;;;;;;;0.40;0.40;;;;;;;9.81;100.00;99837.78;7394504;19;20090;-91
2022/06/19 03:30:16;;;;;;;0.20;0.20;;;;;;;9.77;100.00;99830.84;7393656;19;20011;-91
2022/06/19 03:32:42;;;;;;;5.05;2.72;;;;;;;9.71;100.00;99824.41;7392576;19;20047;-90
2022/06/19 03:35:09;;;;;;;0.47;0.47;;;;;;;9.70;100.00;99825.66;7393150;19;20017;-90
2022/06/19 03:37:36;;;;;;;1.58;1.48;;;;;;;9.70;100.00;99814.53;7395274;19;20026;-90
2022/06/19 03:40:02;;;;;;;0.57;0.57;;;;;;;9.70;100.00;99825.66;7392517;19;20664;-90
2022/06/19 03:42:29;;;;;;;0.13;0.13;;;;;;;9.75;100.00;99836.13;7394409;19;20023;-91
2022/06/19 03:44:55;;;;;;;0.30;0.30;;;;;;;9.74;100.00;99831.81;7398210;19;20027;-91
2022/06/19 03:47:24;;;;;;;1.25;1.25;;;;;;;9.81;100.00;99828.69;7402045;19;20019;-91
2022/06/19 03:49:50;;;;;;;2.47;1.15;;;;;;;9.77;100.00;99828.06;7405131;19;20082;-91
2022/06/19 03:52:17;;;;;;;1.35;0.65;;;;;;;9.72;100.00;99820.41;7401529;19;20026;-91
2022/06/19 03:54:43;;;;;;;0.38;0.38;;;;;;;9.76;100.00;99823.78;7400449;19;20018;-90
2022/06/19 03:57:12;;;;;;;5.97;1.98;;;;;;;9.80;100.00;99827.16;7400294;19;20019;-91
2022/06/19 03:59:39;;;;;;;2.58;1.02;;;;;;;9.81;100.00;99820.34;7402959;19;20014;-91
2022/06/19 04:02:05;;;;;;;0.60;0.60;;;;;;;9.89;100.00;99849.34;7399503;19;20037;-91
2022/06/19 04:04:31;;;;;;;0.25;0.25;;;;;;;10.02;100.00;99847.13;7400392;19;20011;-90
2022/06/19 04:06:58;;;;;;;3.03;0.60;;;;;;;9.98;100.00;99856.88;7400803;19;20014;-88
2022/06/19 04:09:24;;;;;;;0.50;0.28;;;;;;;9.90;100.00;99867.56;7402072;19;20038;-90
2022/06/19 04:11:50;;;;;;;0.40;0.30;;;;;;;9.86;100.00;99853.06;7400830;19;20010;-90
2022/06/19 04:14:16;;;;;;;0.25;0.25;;;;;;;9.84;100.00;99858.34;7398790;19;20043;-91
2022/06/19 04:16:43;;;;;;;0.28;0.28;;;;;;;9.82;100.00;99861.59;7399525;19;20011;-91
2022/06/19 04:19:10;;;;;;;0.45;0.40;;;;;;;9.83;100.00;99865.16;7397492;19;20456;-90
2022/06/19 04:21:42;;;;;;;0.32;0.32;;;;;;;9.84;100.00;99870.22;7398623;19;20014;-91
2022/06/19 04:24:11;;;;;;;0.50;0.50;;;;;;;9.82;100.00;99871.94;7399007;19;20460;-90
2022/06/19 04:26:38;;;;;;;0.57;0.57;;;;;;;9.77;100.00;99867.78;7397562;19;20049;-90
2022/06/19 04:29:05;;;;;;;2.55;0.50;;;;;;;9.88;100.00;99867.28;7401884;19;20011;-90
2022/06/19 04:31:32;;;;;;;1.38;0.80;;;;;;;10.03;100.00;99873.69;7399434;19;20010;-91
2022/06/19 04:33:59;;;;;;;0.50;0.50;;;;;;;10.13;100.00;99872.44;7399335;19;20122;-89
2022/06/19 04:36:28;;;;;;;0.75;0.22;;;;;;;10.25;100.00;99877.00;7400067;19;20027;-89
2022/06/19 04:38:56;;;;;;;0.40;0.40;;;;;;;10.27;100.00;99868.97;7399620;19;20014;-90
2022/06/19 04:41:33;;;;;;;0.22;0.22;;;;;;;10.35;100.00;99870.13;7400129;19;20018;-90
2022/06/19 04:43:59;;;;;;;0.52;0.52;;;;;;;10.40;100.00;99866.72;7398606;19;20054;-90
2022/06/19 04:46:26;;;;;;;0.45;0.43;;;;;;;10.42;100.00;99864.22;7399581;19;20092;-89
2022/06/19 04:48:53;;;;;;;0.22;0.22;;;;;;;10.40;100.00;99855.56;7400193;19;20014;-90
2022/06/19 04:51:20;;;;;;;0.45;0.45;;;;;;;10.31;100.00;99847.28;7397418;19;20015;-90
2022/06/19 04:53:46;;;;;;;0.32;0.32;;;;;;;10.24;100.00;99855.22;7400101;19;20021;-90
2022/06/19 04:56:15;;;;;;;0.40;0.35;;;;;;;10.13;100.00;99858.53;7395054;19;20025;-88
2022/06/19 04:58:41;;;;;;;0.30;0.30;;;;;;;10.06;100.00;99856.06;7398110;19;20015;-88
2022/06/19 05:01:12;;;;;;;0.40;0.40;;;;;;;10.05;100.00;99851.72;7398286;19;20018;-87
2022/06/19 05:03:39;;;;;;;0.60;0.60;;;;;;;10.05;100.00;99857.28;7396093;19;20520;-89
2022/06/19 05:06:05;;;;;;;0.30;0.25;;;;;;;10.01;100.00;99867.84;7397252;19;20019;-90
2022/06/19 05:08:33;;;;;;;0.73;0.47;;;;;;;9.99;100.00;99863.97;7396942;19;20056;-90
2022/06/19 05:10:59;;;;;;;0.50;0.50;;;;;;;9.95;100.00;99866.94;7398594;19;20093;-90
2022/06/19 05:13:25;;;;;;;2.05;0.63;;;;;;;9.87;100.00;99862.97;7394702;19;20022;-90
2022/06/19 05:16:03;;;;;;;0.30;0.30;;;;;;;9.90;100.00;99859.22;7387054;19;20548;-90
2022/06/19 05:18:29;;;;;;;0.93;0.38;;;;;;;9.94;100.00;99846.69;7397591;19;20022;-90
2022/06/19 05:20:57;;;;;;;0.32;0.32;;;;;;;10.01;100.00;99859.47;7401877;19;20027;-88
2022/06/19 05:23:23;;;;;;;0.63;0.63;;;;;;;10.04;100.00;99855.78;7400569;19;20386;-89
2022/06/19 05:25:49;;;;;;;0.30;0.30;;;;;;;10.08;100.00;99861.16;7396104;19;20051;-88
2022/06/19 05:28:15;;;;;;;0.20;0.20;;;;;;;10.15;100.00;99860.84;7398185;19;20014;-90
2022/06/19 05:30:41;;;;;;;2.05;0.40;;;;;;;10.20;100.00;99858.16;7402451;19;20022;-90
2022/06/19 05:33:07;;;;;;;0.60;0.60;;;;;;;10.33;100.00;99855.91;7397075;19;20056;-90
2022/06/19 05:35:33;;;;;;;0.57;0.30;;;;;;;10.53;100.00;99864.44;7400454;19;20011;-90
2022/06/19 05:37:59;;;;;;;0.55;0.55;;;;;;;10.89;100.00;99854.28;7395552;19;20512;-90
2022/06/19 05:40:26;;;;;;;0.47;0.47;;;;;;;11.09;100.00;99854.38;7401839;19;20078;-89
2022/06/19 05:42:52;;;;;;;0.30;0.30;;;;;;;11.22;100.00;99840.94;7396354;19;20002;-90
2022/06/19 05:45:18;;;;;;;0.35;0.35;;;;;;;11.39;100.00;99833.66;7395217;19;20006;-90
2022/06/19 05:47:44;;;;;;;0.90;0.43;;;;;;;11.55;100.00;99835.94;7397245;19;20015;-90
2022/06/19 05:50:11;;;;;;;0.60;0.57;;;;;;;11.67;100.00;99843.28;7400355;19;20509;-90
2022/06/19 05:52:38;;;;;;;0.93;0.60;;;;;;;11.97;100.00;99849.56;7395148;19;20014;-91
2022/06/19 05:55:06;;;;;;;5.65;0.82;;;;;;;12.27;100.00;99850.22;7394556;19;20022;-91
2022/06/19 05:57:32;;;;;;;1.27;0.65;;;;;;;12.51;100.00;99848.00;7396747;19;20048;-90
2022/06/19 05:59:58;;;;;;;3.03;0.95;;;;;;;12.67;100.00;99834.22;7398747;19;20483;-91
2022/06/19 06:02:26;;;;;;;3.17;0.90;;;;;;;12.89;100.00;99850.47;7396300;19;20022;-91
2022/06/19 06:04:52;;;;;;;7.05;0.90;;;;;;;13.05;100.00;99847.16;7395341;19;20014;-92
2022/06/19 06:07:18;;;;;;;2.60;1.38;;;;;;;13.24;100.00;99842.75;7395559;19;20570;-89
2022/06/19 06:09:45;;;;;;;3.65;0.77;;;;;;;13.39;100.00;99843.41;7398008;19;20022;-90
2022/06/19 06:12:11;;;;;;;3.08;0.88;;;;;;;13.50;100.00;99840.69;7396897;19;20018;-90
2022/06/19 06:14:37;;;;;;;6.03;1.17;;;;;;;13.63;100.00;99843.09;7392704;19;20031;-90
2022/06/19 06:17:04;;;;;;;3.53;1.45;;;;;;;13.77;100.00;99835.81;7395927;19;20018;-89
2022/06/19 06:19:31;;;;;;;1.08;0.85;;;;;;;13.95;100.00;99838.22;7395800;19;20093;-90
2022/06/19 06:21:59;;;;;;;2.60;1.10;;;;;;;14.10;100.00;99828.41;7395911;19;20007;-90
2022/06/19 06:24:25;;;;;;;3.03;0.40;;;;;;;14.31;100.00;99831.88;7396456;19;20021;-90
2022/06/19 06:26:52;;;;;;;4.47;0.93;;;;;;;14.47;100.00;99828.38;7395686;19;20015;-90
2022/06/19 06:29:20;;;;;;;6.95;0.50;;;;;;;14.72;100.00;99830.25;7397685;19;20482;-90
2022/06/19 06:31:47;;;;;;;4.88;0.77;;;;;;;14.83;100.00;99837.94;7398048;19;20010;-90
2022/06/19 06:34:13;;;;;;;0.38;0.38;;;;;;;14.85;100.00;99838.97;7395044;19;20031;-90
2022/06/19 06:36:39;;;;;;;0.85;0.35;;;;;;;14.90;100.00;99843.06;7394703;19;20039;-90
2022/06/19 06:39:05;;;;;;;0.50;0.50;;;;;;;15.01;100.00;99843.84;7394060;19;20018;-90
2022/06/19 06:41:31;;;;;;;3.13;0.85;;;;;;;15.11;100.00;99835.97;7400163;19;20021;-90
2022/06/19 06:43:57;;;;;;;2.67;1.02;;;;;;;15.17;100.00;99831.13;7394464;19;20026;-90
2022/06/19 06:46:26;;;;;;;0.65;0.40;;;;;;;15.34;100.00;99828.34;7396492;19;20092;-90
2022/06/19 06:48:57;;;;;;;1.45;0.55;;;;;;;15.34;100.00;99822.72;7396225;19;20015;-90
2022/06/19 06:51:26;;;;;;;0.65;0.43;;;;;;;15.41;100.00;99808.19;7397178;19;20014;-90
2022/06/19 06:53:53;;;;;;;0.50;0.30;;;;;;;15.42;100.00;99809.75;7396600;19;20021;-90
2022/06/19 06:56:20;;;;;;;10.43;0.80;;;;;;;15.50;100.00;99808.75;7394043;19;20018;-90
2022/06/19 06:58:47;;;;;;;0.30;0.20;;;;;;;15.61;100.00;99805.16;7395835;19;20015;-89
2022/06/19 07:01:20;;;;;;;3.70;1.10;;;;;;;15.84;100.00;99806.66;7399173;19;20090;-90
2022/06/19 07:03:49;;;;;;;1.15;0.30;;;;;;;16.03;100.00;99806.88;7395713;19;20019;-88
2022/06/19 07:06:15;;;;;;;0.82;0.68;;;;;;;16.08;100.00;99808.91;7397398;19;20015;-89
2022/06/19 07:08:41;;;;;;;0.77;0.15;;;;;;;16.15;100.00;99809.16;7395206;19;20042;-88
2022/06/19 07:11:16;;;;;;;3.63;0.20;;;;;;;16.35;100.00;99794.03;7398346;19;20014;-88
2022/06/19 07:13:43;;;;;;;2.13;0.55;;;;;;;16.36;100.00;99795.53;7395681;19;20015;-89
2022/06/19 07:16:09;;;;;;;0.20;0.10;;;;;;;16.52;100.00;99803.94;7395574;19;20480;-89
2022/06/19 07:18:35;;;;;;;0.65;0.20;;;;;;;16.63;100.00;99798.25;7397835;19;20028;-89
2022/06/19 07:21:02;;;;;;;0.38;0.30;;;;;;;16.63;100.00;99798.25;7398863;19;20037;-89
2022/06/19 07:23:28;;;;;;;1.00;0.32;;;;;;;16.48;100.00;99803.41;7398697;19;20014;-88
2022/06/19 07:25:54;;;;;;;0.35;0.30;;;;;;;16.43;100.00;99798.59;7397399;19;20010;-87
2022/06/19 07:28:20;;;;;;;0.28;0.28;;;;;;;16.39;100.00;99795.28;7398627;19;20018;-88
2022/06/19 07:30:47;;;;;;;0.35;0.30;;;;;;;16.47;100.00;99801.13;7401308;19;20015;-87
2022/06/19 07:33:13;;;;;;;0.28;0.10;;;;;;;16.64;100.00;99804.66;7399565;19;20019;-88
2022/06/19 07:35:39;;;;;;;0.10;0.10;;;;;;;16.77;100.00;99801.25;7400030;19;20028;-87
2022/06/19 07:38:06;;;;;;;2.35;0.52;;;;;;;16.71;100.00;99804.13;7400614;19;20007;-87
2022/06/19 07:40:32;;;;;;;0.80;0.35;;;;;;;16.65;100.00;99801.31;7401384;19;20341;-88
2022/06/19 07:42:59;;;;;;;0.20;0.20;;;;;;;16.93;100.00;99806.81;7400355;19;20015;-88
2022/06/19 07:45:25;;;;;;;3.30;0.32;;;;;;;17.14;100.00;99812.81;7398265;19;20018;-87
2022/06/19 07:50:36;;;;;;;0.47;0.10;;;;;;;17.56;100.00;99789.75;7399908;19;20018;-87
2022/06/19 07:53:02;;;;;;;1.05;0.13;;;;;;;17.77;100.00;99795.69;7401876;19;20030;-87
2022/06/19 07:55:31;;;;;;;1.85;0.47;;;;;;;18.07;100.00;99791.53;7397573;19;20457;-87
2022/06/19 07:57:59;;;;;;;0.57;0.30;;;;;;;18.42;100.00;99787.03;7400804;19;20086;-87
2022/06/19 08:00:31;;;;;;;0.75;0.30;;;;;;;18.59;100.00;99788.38;7399881;19;20019;-87
2022/06/19 08:02:57;;;;;;;1.10;0.43;;;;;;;18.67;100.00;99791.34;7400308;19;20014;-87
2022/06/19 08:05:27;;;;;;;0.95;0.30;;;;;;;18.44;100.00;99795.72;7399963;19;20024;-87
2022/06/19 08:07:54;;;;;;;0.50;0.20;;;;;;;18.33;100.00;99793.03;7400626;19;20014;-86
2022/06/19 08:10:33;;;;;;;2.30;0.32;;;;;;;18.24;100.00;99794.16;7400123;19;20030;-87
2022/06/19 08:12:59;;;;;;;2.63;0.30;;;;;;;18.00;100.00;99800.56;7403586;19;20022;-87
2022/06/19 08:15:25;;;;;;;0.95;0.10;;;;;;;17.86;100.00;99798.19;7396969;19;20007;-87
2022/06/19 08:17:52;;;;;;;0.30;0.25;;;;;;;17.84;100.00;99801.53;7400774;19;20345;-86
2022/06/19 08:20:20;;;;;;;0.75;0.10;;;;;;;17.93;100.00;99797.59;7395028;19;20041;-85
2022/06/19 08:22:46;;;;;;;0.63;0.32;;;;;;;18.11;100.00;99802.50;7399204;19;20022;-85
2022/06/19 08:25:15;;;;;;;0.75;0.20;;;;;;;18.37;100.00;99801.97;7397415;19;20460;-87
2022/06/19 08:27:43;;;;;;;0.70;0.52;;;;;;;18.52;100.00;99807.97;7399028;19;20019;-88
2022/06/19 08:30:14;;;;;;;1.65;0.10;;;;;;;18.85;100.00;99791.38;7395602;19;20098;-87
2022/06/19 08:32:40;;;;;;;1.75;0.32;;;;;;;19.00;100.00;99796.53;7398196;19;20017;-86
2022/06/19 08:35:07;;;;;;;6.15;0.65;;;;;;;19.07;100.00;99790.28;7395986;19;20078;-87
2022/06/19 08:37:36;;;;;;;0.95;0.75;;;;;;;19.11;100.00;99790.75;7398769;19;20018;-85
2022/06/19 08:40:18;;;;;;;0.22;0.10;;;;;;;19.31;100.00;99795.81;7399698;19;20478;-87
2022/06/19 08:43:09;;;;;;;3.05;0.30;;;;;;;19.47;100.00;99791.22;7405304;19;20017;-86
2022/06/19 08:45:47;;;;;;;0.38;0.20;;;;;;;19.68;100.00;99789.34;7400586;19;20014;-87
2022/06/19 08:48:36;;;;;;;0.30;0.20;;;;;;;19.87;100.00;99787.19;7400165;19;20018;-86
2022/06/19 08:51:15;;;;;;;0.10;0.00;;;;;;;20.01;100.00;99785.16;7397532;19;20015;-86
2022/06/19 08:53:57;;;;;;;2.17;0.20;;;;;;;20.14;100.00;99782.34;7404269;19;20018;-86
2022/06/19 08:56:56;;;;;;;2.40;0.40;;;;;;;20.11;100.00;99781.34;7402981;19;20355;-86
2022/06/19 08:59:39;;;;;;;2.20;0.10;;;;;;;20.03;100.00;99782.53;7399191;19;20011;-86
2022/06/19 09:02:11;;;;;;;1.45;0.20;;;;;;;20.03;100.00;99788.19;7397747;19;20022;-85
2022/06/19 09:08:37;;;;;;;5.32;0.10;;;;;;;20.34;100.00;99787.34;7396980;19;20039;-86
2022/06/19 09:11:22;;;;;;;1.08;0.32;;;;;;;20.22;100.00;99789.66;7398392;19;20460;-86
2022/06/19 09:13:51;;;;;;;3.45;0.20;;;;;;;20.27;100.00;99796.50;7396350;19;20341;-86
2022/06/19 09:16:38;;;;;;;7.35;0.57;;;;;;;20.31;100.00;99796.94;7398642;19;20023;-87
2022/06/19 09:19:15;;;;;;;0.75;0.30;;;;;;;20.26;100.00;99806.28;7396730;19;20342;-86
2022/06/19 09:21:56;;;;;;;0.85;0.13;;;;;;;20.18;100.00;99805.38;7396682;19;20002;-86
2022/06/19 09:24:25;;;;;;;1.65;0.30;;;;;;;20.03;100.00;99800.25;7398288;19;20022;-87
2022/06/19 09:27:00;;;;;;;0.28;0.10;;;;;;;19.95;100.00;99801.44;7395669;19;20021;-86
2022/06/19 09:29:48;;;;;;;3.15;0.98;;;;;;;19.52;100.00;99796.03;7398642;19;20019;-85
2022/06/19 09:32:49;;;;;;;8.80;0.50;;;;;;;19.49;100.00;99797.84;7397407;19;20018;-86
2022/06/19 09:35:30;;;;;;;0.43;0.20;;;;;;;19.55;100.00;99809.84;7401801;19;20022;-85
2022/06/19 09:37:59;;;;;;;1.88;0.52;;;;;;;19.60;100.00;99814.63;7395367;19;20017;-86
2022/06/19 09:40:37;;;;;;;8.25;0.47;;;;;;;19.73;100.00;99824.47;7395083;19;20330;-87
